Greenwood, South Dakota
Current Conditions -  °F | °C
As of 6:35 PM on Tuesday 25 Nov 2014 (Local Time) from KYKN Reporting Station
Few Clouds Few Clouds  
Wind Chill: 34°   Ceiling: Unl
Heat Index: 39°   Visibility: 10mi
Dew Point: 27°   Wind: 8mph
Humidity: 61%   Direction: 150°SSE
Pressure: 29.83"   Gusts: NA
Location:  43.0908°N, 98.2525°W
Report Text: KYKN 260035Z AUTO 15007KT 10SM FEW046 04/M03 A2983 RMK AO1
Loading
Personal Weather Stations






























Interactive Weather Map New forecast layout! Learn more

10-Day Weather Forecast

Advertisements
Track Severe Weather on mobile